Inukjuak, Canada
Current Conditions -  °F | °C
As of 1:00 PM on Thursday 29 Jan 2015 (Local Time) from CYPH Reporting Station
Few Clouds Few Clouds  
Wind Chill: -31°   Ceiling: Unl
Heat Index: -15°   Visibility: 9mi
Dew Point: -20°   Wind: 7mph
Humidity: 77%   Direction: 240°WSW
Pressure: 30"   Gusts: NA
Location:  58.46°N, 78.12°W
Report Text: CYPH 291800Z AUTO 24006KT 9SM FEW065 M26/M29 A3000 RMK SLP164
Loading
Personal Weather Stations






























Interactive Weather Map New forecast layout! Learn more

10-Day Weather Forecast

Advertisements
Track Severe Weather on mobile